createdAt,value
2023-04-12T00:00:00.322Z,0.6
2023-04-12T00:05:00.387Z,1.1
2023-04-12T00:10:00.808Z,0.8
2023-04-12T00:15:00.333Z,0.9
2023-04-12T00:20:00.585Z,0.3
2023-04-12T00:25:00.393Z,0.1
2023-04-12T00:30:00.375Z,0.1
2023-04-12T00:35:00.362Z,0.0
2023-04-12T00:40:00.390Z,0.0
2023-04-12T00:45:00.376Z,0.0
2023-04-12T00:50:00.379Z,0.0
2023-04-12T00:55:00.300Z,0.0
2023-04-12T01:00:00.386Z,0.0
2023-04-12T01:05:00.318Z,0.0
2023-04-12T01:10:00.368Z,0.0
2023-04-12T01:15:00.311Z,0.0
2023-04-12T01:20:00.375Z,0.0
2023-04-12T01:25:00.337Z,0.0
2023-04-12T01:30:00.366Z,0.0
2023-04-12T01:35:00.349Z,0.0
2023-04-12T01:40:00.324Z,0.0
2023-04-12T01:45:00.356Z,0.0
2023-04-12T01:50:00.322Z,0.0
2023-04-12T01:55:00.367Z,0.1
2023-04-12T02:00:00.309Z,0.1
2023-04-12T02:05:00.308Z,0.0
2023-04-12T02:10:00.386Z,0.0
2023-04-12T02:15:00.345Z,0.0
2023-04-12T02:20:00.393Z,0.0
2023-04-12T02:25:00.319Z,0.0
2023-04-12T02:30:00.385Z,0.0
2023-04-12T02:35:00.330Z,0.0
2023-04-12T02:40:00.368Z,0.0
2023-04-12T02:45:00.307Z,0.0
2023-04-12T02:50:00.374Z,0.0
2023-04-12T02:55:00.367Z,0.0
2023-04-12T03:00:00.382Z,0.0
2023-04-12T03:05:00.294Z,0.0
2023-04-12T03:10:00.395Z,0.0
2023-04-12T03:15:00.367Z,0.0
2023-04-12T03:20:00.374Z,0.0
2023-04-12T03:25:00.313Z,0.0
2023-04-12T03:30:00.485Z,0.0
2023-04-12T03:35:00.295Z,0.0
2023-04-12T03:40:00.367Z,0.0
2023-04-12T03:45:00.396Z,0.0
2023-04-12T03:50:12.202Z,0.0
2023-04-12T03:55:00.317Z,0.0
2023-04-12T04:00:00.372Z,0.0
2023-04-12T04:05:00.397Z,0.0
2023-04-12T04:10:00.372Z,0.0
2023-04-12T04:15:00.296Z,0.0
2023-04-12T04:20:00.376Z,0.0
2023-04-12T04:25:00.305Z,0.0
2023-04-12T04:30:00.396Z,0.0
2023-04-12T04:35:00.363Z,0.0
2023-04-12T04:40:00.439Z,0.0
2023-04-12T04:45:01.366Z,0.0
2023-04-12T04:50:00.320Z,0.0
2023-04-12T04:55:00.357Z,0.0
2023-04-12T05:00:00.397Z,0.0
2023-04-12T05:05:00.546Z,0.0
2023-04-12T05:10:00.462Z,0.0
2023-04-12T05:15:11.894Z,0.0
2023-04-12T05:20:00.368Z,0.0
2023-04-12T05:25:00.374Z,0.4
2023-04-12T05:30:00.438Z,0.1
2023-04-12T05:35:00.360Z,0.5
2023-04-12T05:40:00.395Z,0.1
2023-04-12T05:45:00.392Z,0.0
2023-04-12T05:50:00.430Z,0.1
2023-04-12T05:55:00.369Z,0.5
2023-04-12T06:00:00.404Z,0.0
2023-04-12T06:05:00.806Z,0.0
2023-04-12T06:10:00.393Z,0.3
2023-04-12T06:15:00.581Z,0.5
2023-04-12T06:20:00.384Z,1.4
2023-04-12T06:25:00.374Z,3.5
2023-04-12T06:30:00.389Z,1.2
2023-04-12T06:35:00.353Z,1.6
2023-04-12T06:40:00.410Z,3.2
2023-04-12T06:45:00.348Z,2.2
2023-04-12T06:50:00.365Z,5.0
2023-04-12T06:55:00.413Z,3.6
2023-04-12T07:00:00.535Z,6.3
2023-04-12T07:05:00.344Z,3.2
2023-04-12T07:10:00.393Z,2.0
2023-04-12T07:15:00.379Z,5.2
2023-04-12T07:20:00.392Z,6.9
2023-04-12T07:25:01.086Z,5.2
2023-04-12T07:30:00.434Z,7.3
2023-04-12T07:35:00.370Z,7.9
2023-04-12T07:40:00.605Z,10.6
2023-04-12T07:45:00.419Z,7.7
2023-04-12T07:50:00.385Z,8.3
2023-04-12T07:55:00.370Z,6.3
2023-04-12T08:00:00.403Z,5.2
2023-04-12T08:05:00.446Z,9.8
2023-04-12T08:10:00.387Z,5.6
2023-04-12T08:15:00.377Z,8.9
2023-04-12T08:20:00.635Z,11.0
2023-04-12T08:25:00.355Z,7.8
2023-04-12T08:30:00.450Z,6.8
2023-04-12T08:35:00.388Z,7.8
2023-04-12T08:40:00.373Z,8.3
2023-04-12T08:45:00.375Z,4.5
2023-04-12T08:50:00.374Z,10.8
2023-04-12T08:55:00.378Z,6.1
2023-04-12T09:00:00.602Z,10.0
2023-04-12T09:05:00.658Z,9.1
2023-04-12T09:10:00.451Z,6.3
2023-04-12T09:15:00.581Z,8.4
2023-04-12T09:20:00.395Z,10.0
2023-04-12T09:25:00.492Z,9.0
2023-04-12T09:30:00.440Z,10.8
2023-04-12T09:35:00.448Z,7.9
2023-04-12T09:40:00.392Z,7.9
2023-04-12T09:45:00.366Z,10.2
2023-04-12T09:50:00.388Z,12.4
2023-04-12T09:55:00.450Z,11.3
2023-04-12T10:00:00.436Z,14.8
2023-04-12T10:05:00.802Z,7.9
2023-04-12T10:10:00.406Z,13.0
2023-04-12T10:15:00.397Z,12.1
2023-04-12T10:20:00.375Z,9.5
2023-04-12T10:25:00.379Z,9.1
2023-04-12T10:30:00.490Z,9.4
2023-04-12T10:35:00.422Z,6.9
2023-04-12T10:40:00.455Z,4.4
2023-04-12T10:45:01.492Z,6.2
2023-04-12T10:50:00.368Z,10.1
2023-04-12T10:55:00.359Z,14.6
2023-04-12T11:00:00.415Z,11.3
2023-04-12T11:05:00.405Z,7.9
2023-04-12T11:10:00.424Z,7.2
2023-04-12T11:15:00.454Z,7.7
2023-04-12T11:20:00.444Z,8.2
2023-04-12T11:25:00.683Z,8.7
2023-04-12T11:30:00.375Z,6.1
2023-04-12T11:35:00.352Z,5.6
2023-04-12T11:40:00.378Z,10.0
2023-04-12T11:45:09.457Z,12.0
2023-04-12T11:50:00.383Z,6.6
2023-04-12T11:55:00.370Z,9.6
2023-04-12T12:00:00.635Z,12.6
2023-04-12T12:05:00.623Z,12.8
2023-04-12T12:10:00.422Z,9.9
2023-04-12T12:15:00.376Z,10.8
2023-04-12T12:20:00.382Z,9.2
2023-04-12T12:25:00.576Z,7.2
2023-04-12T12:30:00.409Z,12.3
2023-04-12T12:35:00.349Z,10.5
2023-04-12T12:40:00.400Z,4.7
2023-04-12T12:45:00.352Z,8.0
2023-04-12T12:50:00.546Z,7.8
2023-04-12T12:55:00.375Z,10.8
2023-04-12T13:00:00.407Z,9.2
2023-04-12T13:05:00.650Z,6.3
2023-04-12T13:10:00.379Z,10.5
2023-04-12T13:15:20.881Z,6.7
2023-04-12T13:20:00.408Z,7.0
2023-04-12T13:25:00.359Z,8.9
2023-04-12T13:30:00.385Z,9.7
2023-04-12T13:35:00.404Z,9.2
2023-04-12T13:40:00.380Z,10.0
2023-04-12T13:45:00.517Z,10.7
2023-04-12T13:50:00.384Z,6.1
2023-04-12T13:55:00.385Z,8.1
2023-04-12T14:00:00.378Z,9.6
2023-04-12T14:05:00.774Z,10.7
2023-04-12T14:10:00.473Z,6.8
2023-04-12T14:15:00.374Z,15.0
2023-04-12T14:20:00.669Z,11.3
2023-04-12T14:25:00.443Z,13.5
2023-04-12T14:30:00.383Z,5.9
2023-04-12T14:35:00.375Z,4.4
2023-04-12T14:40:00.457Z,8.5
2023-04-12T14:45:00.423Z,5.1
2023-04-12T14:50:00.432Z,7.5
2023-04-12T14:55:00.361Z,11.6
2023-04-12T15:00:00.398Z,10.3
2023-04-12T15:05:00.642Z,9.3
2023-04-12T15:10:00.398Z,11.5
2023-04-12T15:15:00.379Z,9.6
2023-04-12T15:20:00.517Z,6.0
2023-04-12T15:25:00.358Z,6.0
2023-04-12T15:30:00.644Z,7.9
2023-04-12T15:35:04.527Z,9.5
2023-04-12T15:40:00.391Z,5.1
2023-04-12T15:45:00.424Z,6.3
2023-04-12T15:50:00.396Z,4.4
2023-04-12T15:55:00.351Z,7.4
2023-04-12T16:00:00.504Z,6.0
2023-04-12T16:05:00.775Z,9.6
2023-04-12T16:10:00.404Z,7.7
2023-04-12T16:15:00.396Z,7.9
2023-04-12T16:20:00.381Z,4.1
2023-04-12T16:25:00.395Z,10.3
2023-04-12T16:30:00.497Z,2.6
2023-04-12T16:35:00.471Z,1.9
2023-04-12T16:40:00.386Z,4.5
2023-04-12T16:45:00.361Z,3.0
2023-04-12T16:50:00.594Z,5.4
2023-04-12T16:55:00.357Z,2.4
2023-04-12T17:00:00.769Z,2.0
2023-04-12T17:05:02.476Z,6.0
2023-04-12T17:10:00.404Z,6.4
2023-04-12T17:15:00.386Z,4.6
2023-04-12T17:20:02.860Z,5.7
2023-04-12T17:25:00.390Z,9.9
2023-04-12T17:30:00.439Z,2.2
2023-04-12T17:35:00.392Z,3.2
2023-04-12T17:40:00.417Z,7.0
2023-04-12T17:45:00.392Z,2.9
2023-04-12T17:50:00.409Z,2.1
2023-04-12T17:55:00.348Z,1.8
2023-04-12T18:00:00.479Z,5.3
2023-04-12T18:05:00.335Z,5.2
2023-04-12T18:10:00.397Z,5.2
2023-04-12T18:15:00.316Z,7.0
2023-04-12T18:20:02.933Z,2.4
2023-04-12T18:25:00.326Z,3.0
2023-04-12T18:30:00.404Z,3.8
2023-04-12T18:35:00.371Z,1.4
2023-04-12T18:40:00.477Z,4.1
2023-04-12T18:45:00.358Z,6.0
2023-04-12T18:50:00.538Z,4.6
2023-04-12T18:55:00.368Z,4.6
2023-04-12T19:00:00.486Z,5.2
2023-04-12T19:05:00.313Z,3.6
2023-04-12T19:10:00.391Z,6.1
2023-04-12T19:15:00.360Z,4.6
2023-04-12T19:20:00.351Z,5.8
2023-04-12T19:25:00.350Z,7.1
2023-04-12T19:30:00.374Z,11.3
2023-04-12T19:35:00.350Z,6.5
2023-04-12T19:40:00.388Z,8.1
2023-04-12T19:45:00.366Z,11.3
2023-04-12T19:50:00.379Z,11.6
2023-04-12T19:55:02.224Z,9.4
2023-04-12T20:00:00.381Z,7.5
2023-04-12T20:05:00.366Z,7.9
2023-04-12T20:10:00.601Z,5.7
2023-04-12T20:15:00.320Z,5.5
2023-04-12T20:20:00.390Z,4.0
2023-04-12T20:25:00.300Z,8.7
2023-04-12T20:30:00.428Z,3.3
2023-04-12T20:35:00.364Z,6.6
2023-04-12T20:40:00.442Z,3.1
2023-04-12T20:45:00.321Z,4.6
2023-04-12T20:50:00.320Z,4.5
2023-04-12T20:55:00.330Z,7.0
2023-04-12T21:00:00.370Z,3.0
2023-04-12T21:05:00.308Z,4.3
2023-04-12T21:10:00.374Z,1.9
2023-04-12T21:15:00.300Z,2.4
2023-04-12T21:20:00.370Z,1.3
2023-04-12T21:25:00.363Z,3.2
2023-04-12T21:30:00.380Z,3.7
2023-04-12T21:35:00.320Z,5.0
2023-04-12T21:40:00.318Z,2.3
2023-04-12T21:45:00.341Z,3.0
2023-04-12T21:50:00.420Z,2.7
2023-04-12T21:55:00.460Z,1.7
2023-04-12T22:00:00.376Z,1.7
2023-04-12T22:05:00.358Z,1.2
2023-04-12T22:10:00.379Z,2.6
2023-04-12T22:15:00.361Z,5.0
2023-04-12T22:20:00.375Z,0.8
2023-04-12T22:25:00.355Z,3.2
2023-04-12T22:30:00.394Z,0.8
2023-04-12T22:35:09.337Z,1.2
2023-04-12T22:40:00.372Z,3.3
2023-04-12T22:45:00.368Z,3.1
2023-04-12T22:50:00.309Z,5.0
2023-04-12T22:55:00.453Z,3.1
2023-04-12T23:00:00.311Z,0.3
2023-04-12T23:05:00.524Z,3.8
2023-04-12T23:10:00.380Z,2.7
2023-04-12T23:15:00.290Z,0.8
2023-04-12T23:20:00.399Z,2.7
2023-04-12T23:25:00.385Z,1.2
2023-04-12T23:30:00.477Z,3.1
2023-04-12T23:35:00.344Z,1.3
2023-04-12T23:40:00.365Z,1.0
2023-04-12T23:45:00.442Z,1.1
2023-04-12T23:50:00.344Z,4.7
2023-04-12T23:55:00.355Z,1.7
